createdAt,value
2023-01-20T00:07:09.276Z,94.6
2023-01-20T00:27:09.219Z,94.6
2023-01-20T00:47:09.209Z,94.1
2023-01-20T01:07:09.227Z,93.1
2023-01-20T01:27:09.232Z,93.7
2023-01-20T01:47:09.211Z,93.8
2023-01-20T02:07:09.213Z,94.0
2023-01-20T02:27:09.210Z,92.5
2023-01-20T02:47:09.194Z,93.5
2023-01-20T03:07:09.208Z,94.5
2023-01-20T03:27:09.202Z,94.0
2023-01-20T03:47:09.196Z,92.6
2023-01-20T04:07:09.215Z,94.6
2023-01-20T04:27:09.204Z,93.8
2023-01-20T04:47:09.193Z,94.6
2023-01-20T05:07:09.182Z,95.9
2023-01-20T05:27:09.527Z,96.1
2023-01-20T05:47:09.168Z,95.8
2023-01-20T06:07:09.169Z,95.8
2023-01-20T06:27:09.184Z,95.4
2023-01-20T06:47:09.173Z,96.7
2023-01-20T07:07:09.176Z,96.1
2023-01-20T07:27:09.175Z,96.6
2023-01-20T07:47:09.172Z,95.8
2023-01-20T08:07:09.146Z,96.3
2023-01-20T08:27:09.139Z,95.9
2023-01-20T08:47:09.147Z,94.9
2023-01-20T09:07:09.150Z,95.1
2023-01-20T09:27:09.137Z,95.4
2023-01-20T09:47:09.148Z,96.1
2023-01-20T10:07:09.134Z,95.3
2023-01-20T10:27:09.122Z,95.0
2023-01-20T10:47:09.116Z,95.3
2023-01-20T11:07:09.137Z,94.7
2023-01-20T11:27:09.143Z,96.1
2023-01-20T11:47:09.101Z,96.2
2023-01-20T12:07:09.114Z,96.5
2023-01-20T12:27:09.112Z,97.0
2023-01-20T12:47:09.095Z,97.0
2023-01-20T13:07:09.134Z,96.0
2023-01-20T13:27:09.089Z,96.0
2023-01-20T13:47:09.076Z,95.3
2023-01-20T14:07:09.212Z,95.7
2023-01-20T14:27:09.086Z,96.1
2023-01-20T14:47:09.060Z,95.0
2023-01-20T15:07:09.109Z,95.7
2023-01-20T15:27:09.032Z,96.2
2023-01-20T15:47:09.034Z,96.0
2023-01-20T16:07:09.042Z,96.2
2023-01-20T16:27:09.029Z,95.8
2023-01-20T16:47:09.016Z,96.6
2023-01-20T17:07:09.031Z,96.1
2023-01-20T17:27:09.076Z,95.9
2023-01-20T17:47:09.011Z,95.9
2023-01-20T18:07:09.004Z,95.4
2023-01-20T18:27:08.991Z,95.5
2023-01-20T18:47:09.035Z,95.8
2023-01-20T19:07:08.996Z,95.6
2023-01-20T19:27:09.057Z,96.0
2023-01-20T19:47:08.977Z,96.1
2023-01-20T20:07:09.088Z,96.1
2023-01-20T20:27:08.978Z,95.8
2023-01-20T20:47:08.965Z,96.1
2023-01-20T21:07:08.960Z,95.9
2023-01-20T21:27:08.957Z,96.0
2023-01-20T21:47:08.959Z,96.2
2023-01-20T22:07:08.951Z,96.4
2023-01-20T22:27:08.991Z,96.0
2023-01-20T22:47:08.967Z,96.1
2023-01-20T23:07:08.934Z,95.7
2023-01-20T23:27:08.988Z,96.0
2023-01-20T23:47:08.965Z,95.9
